Time;durP1;ratioP1;P1;durP2;ratioP2;P2;SDS_P1;SDS_P2;PMS_P1;PMS_P2;Temp;Humidity;BMP_temperature;BMP_pressure;BME280_temperature;BME280_humidity;BME280_pressure;Samples;Min_cycle;Max_cycle;Signal;HPM_P1;HPM_P2
2023/08/08 00:02:18;;;;;;;6.35;1.88;;;;;;;;;;5017684;28;20061;-79
2023/08/08 00:04:43;;;;;;;6.90;1.48;;;;;;;;;;5024131;28;20474;-79
2023/08/08 00:07:08;;;;;;;4.28;1.30;;;;;;;;;;5022863;28;20030;-80
2023/08/08 00:09:34;;;;;;;5.13;1.30;;;;;;;;;;5022769;28;20104;-80
2023/08/08 00:11:59;;;;;;;4.43;1.40;;;;;;;;;;5014983;28;20511;-79
2023/08/08 00:14:24;;;;;;;5.97;2.47;;;;;;;;;;5021915;28;20508;-79
2023/08/08 00:16:49;;;;;;;4.50;1.55;;;;;;;;;;5014212;28;20030;-79
2023/08/08 00:19:15;;;;;;;4.18;1.45;;;;;;;;;;5028474;28;20033;-79
2023/08/08 00:21:40;;;;;;;3.47;1.48;;;;;;;;;;5037292;28;20105;-79
2023/08/08 00:24:05;;;;;;;5.97;1.35;;;;;;;;;;5022396;28;20066;-78
2023/08/08 00:26:30;;;;;;;3.92;1.20;;;;;;;;;;5021828;28;20022;-79
2023/08/08 00:28:55;;;;;;;3.85;1.40;;;;;;;;;;5029270;28;20030;-78
2023/08/08 00:31:21;;;;;;;6.40;2.08;;;;;;;;;;5033038;28;20555;-79
2023/08/08 00:33:46;;;;;;;5.15;1.95;;;;;;;;;;5030526;28;20123;-79
2023/08/08 00:36:12;;;;;;;5.15;1.48;;;;;;;;;;5021588;28;20105;-79
2023/08/08 00:38:37;;;;;;;6.32;1.65;;;;;;;;;;5029703;28;20030;-79
2023/08/08 00:41:04;;;;;;;5.72;2.10;;;;;;;;;;5021810;28;20034;-79
2023/08/08 00:43:29;;;;;;;2.35;1.20;;;;;;;;;;5022930;28;20030;-79
2023/08/08 00:45:54;;;;;;;7.47;2.42;;;;;;;;;;5028841;28;20045;-79
2023/08/08 00:48:20;;;;;;;5.85;1.73;;;;;;;;;;5023945;28;20030;-79
2023/08/08 00:50:45;;;;;;;3.70;1.60;;;;;;;;;;5025132;28;20133;-79
2023/08/08 00:53:11;;;;;;;4.22;1.42;;;;;;;;;;5040147;28;20029;-79
2023/08/08 00:55:36;;;;;;;6.22;1.65;;;;;;;;;;5023686;28;20026;-79
2023/08/08 00:58:01;;;;;;;6.47;1.83;;;;;;;;;;5022961;28;20038;-78
2023/08/08 01:00:28;;;;;;;4.22;1.52;;;;;;;;;;5021127;28;20079;-79
2023/08/08 01:02:53;;;;;;;6.05;1.85;;;;;;;;;;5037293;28;20030;-79
2023/08/08 01:05:18;;;;;;;3.83;1.55;;;;;;;;;;5021793;28;20037;-79
2023/08/08 01:08:03;;;;;;;6.10;2.20;;;;;;;;;;5021464;28;20072;-79
2023/08/08 01:10:35;;;;;;;4.90;1.92;;;;;;;;;;5019610;28;20504;-79
2023/08/08 01:13:04;;;;;;;5.05;2.15;;;;;;;;;;5025990;28;20072;-79
2023/08/08 01:15:35;;;;;;;4.90;1.83;;;;;;;;;;5030929;28;20030;-79
2023/08/08 01:18:00;;;;;;;6.13;2.10;;;;;;;;;;5038103;28;20045;-80
2023/08/08 01:20:29;;;;;;;6.28;2.08;;;;;;;;;;5029215;28;20037;-79
2023/08/08 01:23:11;;;;;;;8.02;1.98;;;;;;;;;;5037368;28;20396;-80
2023/08/08 01:25:36;;;;;;;8.95;1.85;;;;;;;;;;5027744;28;20141;-79
2023/08/08 01:28:03;;;;;;;5.28;1.88;;;;;;;;;;5021088;28;20049;-80
2023/08/08 01:30:29;;;;;;;5.35;1.95;;;;;;;;;;5020099;28;20545;-79
2023/08/08 01:32:55;;;;;;;5.68;1.80;;;;;;;;;;5037665;28;20105;-80
2023/08/08 01:35:20;;;;;;;5.07;1.85;;;;;;;;;;5020589;28;20117;-79
2023/08/08 01:37:48;;;;;;;4.68;1.55;;;;;;;;;;5040075;28;20033;-79
2023/08/08 01:40:16;;;;;;;5.05;1.63;;;;;;;;;;5021284;28;20065;-79
2023/08/08 01:42:43;;;;;;;6.20;1.85;;;;;;;;;;5028617;28;20548;-80
2023/08/08 01:45:09;;;;;;;7.18;1.98;;;;;;;;;;5021735;28;20040;-79
2023/08/08 01:47:35;;;;;;;10.90;2.10;;;;;;;;;;5036496;28;20033;-79
2023/08/08 01:50:01;;;;;;;5.20;2.05;;;;;;;;;;5037074;28;20444;-79
2023/08/08 01:52:26;;;;;;;4.32;1.65;;;;;;;;;;5021149;28;20029;-79
2023/08/08 01:54:52;;;;;;;4.97;1.45;;;;;;;;;;5021684;28;20040;-80
2023/08/08 01:57:17;;;;;;;5.43;1.90;;;;;;;;;;5037467;28;20068;-78
2023/08/08 01:59:42;;;;;;;7.05;1.80;;;;;;;;;;5035452;28;20120;-79
2023/08/08 02:02:08;;;;;;;6.15;1.63;;;;;;;;;;5029304;28;20038;-79
2023/08/08 02:04:33;;;;;;;6.15;1.83;;;;;;;;;;5021089;28;20030;-79
2023/08/08 02:06:59;;;;;;;4.82;1.50;;;;;;;;;;5012812;28;20057;-79
2023/08/08 02:09:24;;;;;;;7.47;2.17;;;;;;;;;;5020067;28;20061;-80
2023/08/08 02:11:50;;;;;;;4.65;1.80;;;;;;;;;;5033619;28;20021;-80
2023/08/08 02:14:15;;;;;;;6.80;1.80;;;;;;;;;;5018709;28;20428;-80
2023/08/08 02:16:42;;;;;;;3.70;1.35;;;;;;;;;;5025335;28;20065;-79
2023/08/08 02:19:07;;;;;;;4.20;1.75;;;;;;;;;;5033332;28;20105;-79
2023/08/08 02:21:32;;;;;;;4.50;1.80;;;;;;;;;;5026118;28;20053;-79
2023/08/08 02:23:57;;;;;;;5.28;1.80;;;;;;;;;;5019004;28;20460;-79
2023/08/08 02:26:24;;;;;;;7.90;2.03;;;;;;;;;;5024688;28;20093;-79
2023/08/08 02:28:50;;;;;;;4.75;1.60;;;;;;;;;;5024937;28;20034;-78
2023/08/08 02:31:20;;;;;;;7.60;2.22;;;;;;;;;;5029962;28;20105;-79
2023/08/08 02:33:47;;;;;;;4.28;1.70;;;;;;;;;;5023290;28;20025;-79
2023/08/08 02:36:12;;;;;;;4.05;2.03;;;;;;;;;;5025595;28;20037;-79
2023/08/08 02:38:38;;;;;;;4.72;1.80;;;;;;;;;;5022366;28;20033;-79
2023/08/08 02:41:03;;;;;;;7.50;2.05;;;;;;;;;;5019121;28;20034;-79
2023/08/08 02:43:28;;;;;;;5.18;1.77;;;;;;;;;;5039618;28;20022;-79
2023/08/08 02:45:54;;;;;;;4.63;1.80;;;;;;;;;;5039706;28;20056;-79
2023/08/08 02:48:19;;;;;;;5.93;1.98;;;;;;;;;;5029285;28;20030;-80
2023/08/08 02:50:44;;;;;;;7.45;1.95;;;;;;;;;;5019877;28;20421;-79
2023/08/08 02:53:10;;;;;;;5.63;1.98;;;;;;;;;;5036633;28;20122;-78
2023/08/08 02:55:41;;;;;;;4.05;1.77;;;;;;;;;;5039161;28;20065;-79
2023/08/08 02:58:06;;;;;;;4.25;2.22;;;;;;;;;;5025959;28;20026;-78
2023/08/08 03:00:31;;;;;;;6.18;1.90;;;;;;;;;;5042921;28;20038;-79
2023/08/08 03:02:58;;;;;;;5.13;2.20;;;;;;;;;;5027176;28;20085;-78
2023/08/08 03:05:23;;;;;;;5.50;1.75;;;;;;;;;;5042602;28;20049;-79
2023/08/08 03:07:48;;;;;;;6.43;2.47;;;;;;;;;;5027307;28;20038;-78
2023/08/08 03:10:14;;;;;;;6.47;2.25;;;;;;;;;;5024516;28;20034;-79
2023/08/08 03:12:41;;;;;;;6.60;2.25;;;;;;;;;;5031552;28;20030;-80
2023/08/08 03:15:08;;;;;;;4.38;1.70;;;;;;;;;;5038641;28;20516;-79
2023/08/08 03:17:34;;;;;;;5.10;1.60;;;;;;;;;;5026067;28;20198;-79
2023/08/08 03:20:00;;;;;;;6.80;2.08;;;;;;;;;;5040675;28;20056;-79
2023/08/08 03:22:25;;;;;;;5.38;1.90;;;;;;;;;;5041867;28;20046;-79
2023/08/08 03:24:50;;;;;;;6.32;2.17;;;;;;;;;;5028526;28;20030;-79
2023/08/08 03:27:16;;;;;;;7.53;2.45;;;;;;;;;;5024068;28;20026;-80
2023/08/08 03:29:41;;;;;;;6.45;2.25;;;;;;;;;;5029608;28;20053;-79
2023/08/08 03:32:07;;;;;;;5.03;2.13;;;;;;;;;;5033038;28;20037;-79
2023/08/08 03:34:32;;;;;;;5.78;1.90;;;;;;;;;;5040889;28;20030;-79
2023/08/08 03:36:58;;;;;;;5.03;2.05;;;;;;;;;;5025384;28;20026;-79
2023/08/08 03:39:24;;;;;;;6.22;1.70;;;;;;;;;;5018384;28;20030;-79
2023/08/08 03:41:49;;;;;;;5.07;2.00;;;;;;;;;;5021374;28;20040;-79
2023/08/08 03:44:14;;;;;;;3.92;1.95;;;;;;;;;;5022736;28;20507;-79
2023/08/08 03:46:40;;;;;;;5.70;1.70;;;;;;;;;;5030793;28;20156;-79
2023/08/08 03:49:05;;;;;;;5.97;1.90;;;;;;;;;;5024436;28;20433;-78
2023/08/08 03:51:30;;;;;;;7.47;1.70;;;;;;;;;;5024188;28;20033;-78
2023/08/08 03:53:56;;;;;;;5.82;1.67;;;;;;;;;;5037370;28;20026;-79
2023/08/08 03:56:22;;;;;;;6.32;1.95;;;;;;;;;;5014951;28;20107;-78
2023/08/08 03:58:47;;;;;;;3.95;1.95;;;;;;;;;;5040567;28;20459;-78
2023/08/08 04:01:12;;;;;;;4.55;1.95;;;;;;;;;;5023111;28;20022;-79
2023/08/08 04:03:39;;;;;;;7.40;1.90;;;;;;;;;;5021975;28;20575;-79
2023/08/08 04:06:04;;;;;;;3.00;1.42;;;;;;;;;;5020455;28;20034;-79
2023/08/08 04:08:31;;;;;;;7.15;1.90;;;;;;;;;;5039438;28;20030;-79
2023/08/08 04:10:57;;;;;;;6.88;3.25;;;;;;;;;;5025295;28;20026;-79
2023/08/08 04:13:23;;;;;;;5.35;1.98;;;;;;;;;;5039717;28;20038;-79
2023/08/08 04:15:48;;;;;;;4.63;2.00;;;;;;;;;;5039361;28;20036;-79
2023/08/08 04:18:13;;;;;;;6.57;1.73;;;;;;;;;;5022815;28;20033;-80
2023/08/08 04:20:38;;;;;;;4.10;1.40;;;;;;;;;;5022797;28;20093;-78
2023/08/08 04:23:03;;;;;;;5.80;2.20;;;;;;;;;;5028329;28;20033;-77
2023/08/08 04:25:29;;;;;;;3.97;1.60;;;;;;;;;;5027846;28;20610;-79
2023/08/08 04:27:54;;;;;;;5.35;2.38;;;;;;;;;;5028751;28;20041;-78
2023/08/08 04:30:20;;;;;;;4.68;2.03;;;;;;;;;;5023161;28;20037;-78
2023/08/08 04:32:45;;;;;;;4.50;1.90;;;;;;;;;;5033340;28;20563;-78
2023/08/08 04:35:10;;;;;;;5.35;1.60;;;;;;;;;;5021904;28;20126;-77
2023/08/08 04:37:36;;;;;;;4.70;1.90;;;;;;;;;;5025884;28;20084;-77
2023/08/08 04:40:01;;;;;;;3.17;1.70;;;;;;;;;;5037954;28;20082;-79
2023/08/08 04:42:26;;;;;;;4.97;1.65;;;;;;;;;;5021824;28;20030;-78
2023/08/08 04:44:51;;;;;;;3.97;2.10;;;;;;;;;;5028574;28;20034;-78
2023/08/08 04:47:16;;;;;;;4.90;1.75;;;;;;;;;;5020539;28;20044;-78
2023/08/08 04:49:42;;;;;;;3.33;1.50;;;;;;;;;;5022058;28;20033;-78
2023/08/08 04:52:07;;;;;;;5.07;1.77;;;;;;;;;;5025584;28;20253;-78
2023/08/08 04:54:32;;;;;;;4.55;1.52;;;;;;;;;;5035204;28;20037;-77
2023/08/08 04:56:57;;;;;;;3.92;1.60;;;;;;;;;;5024369;28;20026;-80
2023/08/08 04:59:23;;;;;;;5.70;1.73;;;;;;;;;;5030798;28;20030;-78
2023/08/08 05:01:48;;;;;;;7.00;1.70;;;;;;;;;;5040057;28;20432;-79
2023/08/08 05:04:13;;;;;;;6.78;2.05;;;;;;;;;;5024381;28;20114;-79
2023/08/08 05:06:38;;;;;;;7.90;1.80;;;;;;;;;;5023392;28;20116;-79
2023/08/08 05:09:04;;;;;;;5.15;1.70;;;;;;;;;;5028230;28;20069;-80
2023/08/08 05:11:29;;;;;;;4.15;2.03;;;;;;;;;;5022649;28;20029;-78
2023/08/08 05:13:54;;;;;;;3.38;1.40;;;;;;;;;;5022249;28;20048;-78
2023/08/08 05:16:19;;;;;;;4.13;1.48;;;;;;;;;;5035105;28;20516;-79
2023/08/08 05:18:45;;;;;;;4.55;1.40;;;;;;;;;;5040502;28;20477;-79
2023/08/08 05:21:10;;;;;;;3.65;1.60;;;;;;;;;;5030984;28;20044;-79
2023/08/08 05:23:36;;;;;;;7.03;1.80;;;;;;;;;;5033437;28;20251;-80
2023/08/08 05:26:01;;;;;;;3.88;1.55;;;;;;;;;;5024548;28;20068;-79
2023/08/08 05:28:26;;;;;;;6.18;1.40;;;;;;;;;;5033082;28;20117;-79
2023/08/08 05:30:51;;;;;;;5.85;1.60;;;;;;;;;;5020803;28;20037;-78
2023/08/08 05:33:16;;;;;;;4.25;1.38;;;;;;;;;;5025731;28;20037;-79
2023/08/08 05:35:42;;;;;;;5.75;1.30;;;;;;;;;;5043086;28;20041;-79
2023/08/08 05:38:07;;;;;;;3.28;1.38;;;;;;;;;;5038563;28;20030;-79
2023/08/08 05:40:36;;;;;;;4.18;1.23;;;;;;;;;;5027472;28;20037;-80
2023/08/08 05:43:01;;;;;;;3.60;1.30;;;;;;;;;;5035746;28;20034;-79
2023/08/08 05:45:26;;;;;;;7.10;1.60;;;;;;;;;;5026391;28;20033;-80
2023/08/08 05:47:52;;;;;;;4.47;1.55;;;;;;;;;;5028115;28;20025;-80
2023/08/08 05:50:17;;;;;;;3.15;1.50;;;;;;;;;;5026912;28;20038;-79
2023/08/08 05:52:42;;;;;;;5.20;1.77;;;;;;;;;;5043933;28;20034;-80
2023/08/08 05:55:08;;;;;;;5.43;1.70;;;;;;;;;;5032898;28;20038;-79
2023/08/08 05:57:33;;;;;;;4.72;1.60;;;;;;;;;;5030613;28;20034;-79
2023/08/08 05:59:59;;;;;;;6.70;1.85;;;;;;;;;;5032157;28;20029;-80
2023/08/08 06:02:24;;;;;;;4.68;1.50;;;;;;;;;;5024264;28;20026;-79
2023/08/08 06:04:49;;;;;;;3.10;1.45;;;;;;;;;;5021750;28;20033;-79
2023/08/08 06:07:14;;;;;;;6.15;1.52;;;;;;;;;;5027220;28;20097;-80
2023/08/08 06:09:40;;;;;;;2.97;1.30;;;;;;;;;;5035431;28;20056;-79
2023/08/08 06:12:05;;;;;;;4.28;1.27;;;;;;;;;;5026148;28;20405;-80
2023/08/08 06:14:30;;;;;;;5.05;1.50;;;;;;;;;;5026784;28;20057;-80
2023/08/08 06:16:56;;;;;;;5.10;1.55;;;;;;;;;;5026997;28;20033;-80
2023/08/08 06:19:21;;;;;;;3.83;1.20;;;;;;;;;;5025890;28;20097;-79
2023/08/08 06:21:46;;;;;;;3.00;1.30;;;;;;;;;;5023059;28;20037;-80
2023/08/08 06:24:11;;;;;;;4.43;1.27;;;;;;;;;;5036087;28;20104;-78
2023/08/08 06:26:37;;;;;;;4.45;1.65;;;;;;;;;;5042679;28;20026;-80
2023/08/08 06:29:02;;;;;;;3.03;1.33;;;;;;;;;;5026752;28;20037;-79
2023/08/08 06:31:27;;;;;;;3.08;1.15;;;;;;;;;;5027652;28;20052;-80
2023/08/08 06:33:53;;;;;;;4.22;1.45;;;;;;;;;;5027345;28;20037;-80
2023/08/08 06:36:18;;;;;;;6.25;1.77;;;;;;;;;;5042731;28;20057;-80
2023/08/08 06:38:44;;;;;;;3.97;1.38;;;;;;;;;;5036457;28;20118;-80
2023/08/08 06:41:09;;;;;;;4.32;1.20;;;;;;;;;;5026385;28;20061;-80
2023/08/08 06:43:34;;;;;;;3.97;1.13;;;;;;;;;;5027355;28;20337;-78
2023/08/08 06:46:00;;;;;;;3.03;1.30;;;;;;;;;;5032457;28;20092;-80
2023/08/08 06:48:25;;;;;;;5.85;1.40;;;;;;;;;;5034075;28;20496;-80
2023/08/08 06:50:51;;;;;;;4.60;1.15;;;;;;;;;;5026823;28;20036;-80
2023/08/08 06:53:16;;;;;;;2.72;1.20;;;;;;;;;;5026087;28;20030;-80
2023/08/08 06:55:41;;;;;;;5.68;1.35;;;;;;;;;;5025129;28;20045;-80
2023/08/08 06:58:06;;;;;;;2.92;1.17;;;;;;;;;;5025198;28;20125;-79
2023/08/08 07:00:32;;;;;;;4.32;1.38;;;;;;;;;;5028003;28;20037;-80
2023/08/08 07:02:57;;;;;;;2.75;1.20;;;;;;;;;;5025215;28;20033;-80
2023/08/08 07:05:22;;;;;;;4.47;1.60;;;;;;;;;;5025712;28;20029;-79
2023/08/08 07:07:49;;;;;;;3.80;1.33;;;;;;;;;;5033252;28;20068;-80
2023/08/08 07:10:14;;;;;;;4.25;1.45;;;;;;;;;;5036725;28;20038;-78
2023/08/08 07:12:39;;;;;;;5.15;1.27;;;;;;;;;;5034670;28;20040;-79
2023/08/08 07:15:07;;;;;;;2.90;1.30;;;;;;;;;;5026008;28;20484;-78
2023/08/08 07:17:32;;;;;;;4.13;1.63;;;;;;;;;;5026293;28;20073;-80
2023/08/08 07:19:57;;;;;;;4.53;1.33;;;;;;;;;;5023952;28;20030;-80
2023/08/08 07:22:23;;;;;;;4.00;1.40;;;;;;;;;;5026685;28;20026;-79
2023/08/08 07:24:48;;;;;;;4.57;1.20;;;;;;;;;;5026901;28;20032;-80
2023/08/08 07:27:13;;;;;;;4.10;1.17;;;;;;;;;;5026664;28;20038;-80
2023/08/08 07:29:38;;;;;;;3.75;1.30;;;;;;;;;;5027998;28;20093;-80
2023/08/08 07:32:04;;;;;;;4.20;1.40;;;;;;;;;;5027561;28;20053;-80
2023/08/08 07:34:29;;;;;;;4.20;1.20;;;;;;;;;;5034237;28;20034;-79
2023/08/08 07:36:55;;;;;;;2.70;1.20;;;;;;;;;;5043650;28;20485;-79
2023/08/08 07:39:21;;;;;;;4.28;1.40;;;;;;;;;;5034384;28;20030;-79
2023/08/08 07:41:46;;;;;;;3.70;1.40;;;;;;;;;;5029893;28;20048;-80
2023/08/08 07:44:11;;;;;;;3.95;1.38;;;;;;;;;;5046250;28;20039;-79
2023/08/08 07:46:36;;;;;;;2.90;1.10;;;;;;;;;;5030251;28;20048;-80
2023/08/08 07:49:03;;;;;;;3.17;1.25;;;;;;;;;;5028914;28;20085;-80
2023/08/08 07:51:29;;;;;;;4.30;1.98;;;;;;;;;;5036864;28;20085;-80
2023/08/08 07:53:54;;;;;;;2.72;1.10;;;;;;;;;;5045580;28;20382;-80
2023/08/08 07:56:19;;;;;;;4.10;1.30;;;;;;;;;;5028608;28;20037;-80
2023/08/08 07:58:45;;;;;;;2.53;1.13;;;;;;;;;;5028750;28;20038;-80
2023/08/08 08:01:11;;;;;;;4.82;1.15;;;;;;;;;;5029052;28;20029;-80
2023/08/08 08:03:37;;;;;;;3.70;1.20;;;;;;;;;;5030021;28;20026;-79
2023/08/08 08:06:02;;;;;;;4.68;1.25;;;;;;;;;;5029492;28;20037;-80
2023/08/08 08:08:27;;;;;;;2.78;1.10;;;;;;;;;;5028283;28;20033;-79
2023/08/08 08:10:53;;;;;;;2.10;1.05;;;;;;;;;;5028587;28;20045;-80
2023/08/08 08:13:18;;;;;;;3.03;1.30;;;;;;;;;;5036911;28;20061;-78
2023/08/08 08:15:43;;;;;;;3.13;1.05;;;;;;;;;;5028959;28;20034;-80
2023/08/08 08:18:08;;;;;;;3.20;1.40;;;;;;;;;;5036521;28;20056;-80
2023/08/08 08:20:34;;;;;;;2.78;1.10;;;;;;;;;;5028971;28;20026;-80
2023/08/08 08:22:59;;;;;;;2.53;0.90;;;;;;;;;;5028153;28;20040;-80
2023/08/08 08:25:24;;;;;;;4.15;1.38;;;;;;;;;;5035222;28;20056;-80
2023/08/08 08:27:50;;;;;;;4.13;1.40;;;;;;;;;;5043099;28;20034;-80
2023/08/08 08:30:15;;;;;;;4.40;1.60;;;;;;;;;;5027509;28;20033;-80
2023/08/08 08:32:41;;;;;;;2.95;1.20;;;;;;;;;;5027159;28;20057;-79
2023/08/08 08:35:06;;;;;;;3.75;1.00;;;;;;;;;;5034732;28;20037;-79
2023/08/08 08:37:32;;;;;;;3.05;0.93;;;;;;;;;;5029054;28;20030;-79
2023/08/08 08:39:57;;;;;;;3.67;1.35;;;;;;;;;;5009821;28;20033;-80
2023/08/08 08:42:23;;;;;;;3.00;1.10;;;;;;;;;;5026645;28;20036;-79
2023/08/08 08:44:49;;;;;;;7.03;1.02;;;;;;;;;;5042593;28;20037;-79
2023/08/08 08:47:17;;;;;;;4.80;1.20;;;;;;;;;;5025378;28;20068;-80
2023/08/08 08:49:45;;;;;;;3.00;1.33;;;;;;;;;;5036904;28;20046;-79
2023/08/08 08:52:11;;;;;;;3.42;1.38;;;;;;;;;;5035616;28;20432;-79
2023/08/08 08:54:36;;;;;;;2.92;1.50;;;;;;;;;;5039016;28;20033;-80
2023/08/08 08:57:01;;;;;;;2.80;1.10;;;;;;;;;;5034300;28;20022;-79
2023/08/08 08:59:26;;;;;;;2.37;1.10;;;;;;;;;;5026058;28;20030;-78
2023/08/08 09:01:52;;;;;;;3.60;1.13;;;;;;;;;;5033119;28;20284;-80
2023/08/08 09:04:19;;;;;;;3.92;1.27;;;;;;;;;;5027861;28;20095;-80
2023/08/08 09:06:45;;;;;;;3.60;1.42;;;;;;;;;;5025915;28;20026;-80
2023/08/08 09:09:12;;;;;;;5.10;1.08;;;;;;;;;;5030036;28;20034;-80
2023/08/08 09:11:38;;;;;;;2.30;1.00;;;;;;;;;;5031467;28;20030;-80
2023/08/08 09:14:03;;;;;;;2.75;1.25;;;;;;;;;;5038660;28;20118;-79
2023/08/08 09:16:29;;;;;;;5.93;1.20;;;;;;;;;;5031664;28;20034;-80
2023/08/08 09:18:54;;;;;;;3.15;1.20;;;;;;;;;;5030074;28;20033;-80
2023/08/08 09:21:19;;;;;;;2.72;1.10;;;;;;;;;;5029646;28;20033;-80
2023/08/08 09:23:44;;;;;;;2.95;0.70;;;;;;;;;;5038610;28;20041;-80
2023/08/08 09:26:10;;;;;;;4.38;1.20;;;;;;;;;;5032548;28;20084;-79
2023/08/08 09:28:35;;;;;;;2.97;1.00;;;;;;;;;;5036357;28;20038;-79
2023/08/08 09:31:00;;;;;;;3.00;0.82;;;;;;;;;;5032758;28;20033;-79
2023/08/08 09:33:29;;;;;;;2.35;0.90;;;;;;;;;;5036919;28;20037;-80
2023/08/08 09:35:55;;;;;;;1.98;0.93;;;;;;;;;;5035316;28;20034;-80
2023/08/08 09:38:20;;;;;;;2.33;1.20;;;;;;;;;;5033295;28;20045;-80
2023/08/08 09:40:46;;;;;;;5.30;1.08;;;;;;;;;;5025653;28;20539;-79
2023/08/08 09:43:11;;;;;;;3.72;1.20;;;;;;;;;;5046263;28;20045;-79
2023/08/08 09:45:41;;;;;;;3.28;1.48;;;;;;;;;;5030093;28;20045;-80
2023/08/08 09:48:07;;;;;;;3.20;1.35;;;;;;;;;;5046112;28;20121;-80
2023/08/08 09:50:35;;;;;;;4.22;0.95;;;;;;;;;;5029682;28;20088;-79
2023/08/08 09:53:01;;;;;;;2.58;1.23;;;;;;;;;;5045450;28;20060;-80
2023/08/08 09:55:27;;;;;;;3.25;1.40;;;;;;;;;;5017226;28;20034;-79
2023/08/08 09:57:53;;;;;;;3.10;1.30;;;;;;;;;;5044663;28;20117;-80
2023/08/08 10:00:20;;;;;;;2.17;1.00;;;;;;;;;;5027264;28;20026;-79
2023/08/08 10:02:46;;;;;;;2.63;1.08;;;;;;;;;;5036405;28;20037;-79
2023/08/08 10:05:13;;;;;;;2.58;1.05;;;;;;;;;;5029093;28;20030;-80
2023/08/08 10:07:39;;;;;;;4.85;1.27;;;;;;;;;;5030273;28;20037;-78
2023/08/08 10:10:06;;;;;;;3.50;1.35;;;;;;;;;;5044283;28;20101;-78
2023/08/08 10:12:31;;;;;;;1.98;1.00;;;;;;;;;;5029527;28;20037;-79
2023/08/08 10:14:58;;;;;;;3.97;1.63;;;;;;;;;;5028470;28;20029;-78
2023/08/08 10:17:23;;;;;;;3.00;1.17;;;;;;;;;;5035927;28;20056;-80
2023/08/08 10:19:54;;;;;;;3.17;1.10;;;;;;;;;;5025730;28;20090;-78
2023/08/08 10:22:24;;;;;;;3.60;1.23;;;;;;;;;;5032937;28;20033;-78
2023/08/08 10:24:51;;;;;;;3.65;0.90;;;;;;;;;;5028134;28;20284;-79
2023/08/08 10:27:26;;;;;;;2.92;1.15;;;;;;;;;;5028936;28;20049;-78
2023/08/08 10:29:51;;;;;;;5.75;1.00;;;;;;;;;;5029439;28;20105;-78
2023/08/08 10:32:21;;;;;;;2.08;0.88;;;;;;;;;;5032429;28;20120;-78
2023/08/08 10:34:47;;;;;;;3.58;1.10;;;;;;;;;;5023679;28;20080;-78
2023/08/08 10:37:17;;;;;;;2.13;1.02;;;;;;;;;;5023831;28;20034;-79
2023/08/08 10:39:53;;;;;;;2.35;1.10;;;;;;;;;;5012949;28;20038;-78
2023/08/08 10:42:19;;;;;;;1.75;0.68;;;;;;;;;;5038560;28;20034;-79
2023/08/08 10:44:52;;;;;;;3.78;1.10;;;;;;;;;;5029445;28;20026;-78
2023/08/08 10:47:21;;;;;;;2.83;1.05;;;;;;;;;;5014843;28;20066;-79
2023/08/08 10:49:55;;;;;;;3.63;1.30;;;;;;;;;;5020757;28;20090;-79
2023/08/08 10:52:21;;;;;;;3.85;1.27;;;;;;;;;;5039957;28;20037;-78
2023/08/08 10:54:52;;;;;;;3.15;0.98;;;;;;;;;;5029812;28;20030;-80
2023/08/08 10:57:19;;;;;;;2.87;1.20;;;;;;;;;;5042781;28;20030;-79
2023/08/08 10:59:44;;;;;;;3.92;1.17;;;;;;;;;;5029753;28;20030;-79
2023/08/08 11:02:09;;;;;;;4.15;1.02;;;;;;;;;;5029181;28;20093;-80
2023/08/08 11:04:35;;;;;;;2.63;1.08;;;;;;;;;;5029715;28;20040;-81
2023/08/08 11:07:01;;;;;;;2.78;1.10;;;;;;;;;;5036663;28;20026;-80
2023/08/08 11:09:26;;;;;;;4.13;1.10;;;;;;;;;;5044852;28;20040;-81
2023/08/08 11:11:52;;;;;;;3.35;1.30;;;;;;;;;;5028490;28;20036;-79
2023/08/08 11:14:18;;;;;;;3.42;0.98;;;;;;;;;;5037535;28;20033;-80
2023/08/08 11:16:44;;;;;;;6.32;1.17;;;;;;;;;;5036396;28;20045;-79
2023/08/08 11:19:10;;;;;;;3.30;1.10;;;;;;;;;;5030636;28;20157;-80
2023/08/08 11:21:45;;;;;;;7.13;1.27;;;;;;;;;;5029032;28;20030;-79
2023/08/08 11:24:12;;;;;;;3.17;1.02;;;;;;;;;;5034131;28;20052;-80
2023/08/08 11:26:37;;;;;;;3.95;1.13;;;;;;;;;;5030094;28;20029;-80
2023/08/08 11:29:04;;;;;;;2.35;1.08;;;;;;;;;;5029267;28;20022;-81
2023/08/08 11:31:29;;;;;;;2.67;1.10;;;;;;;;;;5029781;28;20048;-79
2023/08/08 11:33:55;;;;;;;3.67;1.45;;;;;;;;;;5026488;28;20477;-79
2023/08/08 11:36:20;;;;;;;3.38;1.30;;;;;;;;;;5023747;28;20073;-80
2023/08/08 11:38:46;;;;;;;2.38;1.10;;;;;;;;;;5037004;28;20056;-78
2023/08/08 11:41:12;;;;;;;4.45;1.20;;;;;;;;;;5036188;28;20044;-80
2023/08/08 11:43:38;;;;;;;4.13;1.20;;;;;;;;;;5036832;28;20404;-80
2023/08/08 11:46:03;;;;;;;3.97;1.45;;;;;;;;;;5035915;28;20029;-80
2023/08/08 11:48:32;;;;;;;2.60;0.85;;;;;;;;;;5036146;28;20045;-81
2023/08/08 11:50:57;;;;;;;3.03;1.40;;;;;;;;;;5035596;28;20060;-81
2023/08/08 11:53:23;;;;;;;3.83;1.30;;;;;;;;;;5029168;28;20472;-81
2023/08/08 11:55:48;;;;;;;3.72;1.30;;;;;;;;;;5036585;28;20304;-79
2023/08/08 11:58:14;;;;;;;5.10;1.42;;;;;;;;;;5036159;28;20029;-81
2023/08/08 12:00:39;;;;;;;2.97;1.10;;;;;;;;;;5034696;28;20026;-81
2023/08/08 12:03:06;;;;;;;2.08;1.05;;;;;;;;;;5043812;28;20033;-80
2023/08/08 12:05:36;;;;;;;2.25;1.15;;;;;;;;;;5035323;28;20029;-80
2023/08/08 12:08:01;;;;;;;2.88;1.33;;;;;;;;;;5026840;28;20026;-80
2023/08/08 12:10:26;;;;;;;3.17;1.23;;;;;;;;;;5023827;28;20567;-80
2023/08/08 12:12:54;;;;;;;2.42;0.95;;;;;;;;;;5025379;28;20091;-81
2023/08/08 12:15:19;;;;;;;2.88;1.27;;;;;;;;;;5033385;28;20041;-79
2023/08/08 12:17:45;;;;;;;3.75;1.40;;;;;;;;;;5033882;28;20026;-80
2023/08/08 12:20:10;;;;;;;3.70;1.05;;;;;;;;;;5026397;28;20045;-80
2023/08/08 12:22:36;;;;;;;3.35;1.10;;;;;;;;;;5026621;28;20036;-81
2023/08/08 12:25:02;;;;;;;4.35;1.13;;;;;;;;;;5027608;28;20244;-80
2023/08/08 12:27:28;;;;;;;3.67;1.00;;;;;;;;;;5041507;28;20101;-81
2023/08/08 12:29:53;;;;;;;3.67;1.33;;;;;;;;;;5041574;28;20033;-81
2023/08/08 12:32:26;;;;;;;4.70;1.17;;;;;;;;;;5035544;28;20030;-80
2023/08/08 12:34:51;;;;;;;2.30;1.05;;;;;;;;;;5016207;28;20285;-81
2023/08/08 12:37:17;;;;;;;2.50;1.23;;;;;;;;;;5036535;28;20026;-80
2023/08/08 12:39:43;;;;;;;3.72;1.30;;;;;;;;;;5013282;28;20269;-80
2023/08/08 12:42:08;;;;;;;3.40;1.23;;;;;;;;;;5032156;28;20030;-81
2023/08/08 12:44:33;;;;;;;2.95;1.08;;;;;;;;;;5036472;28;20018;-80
2023/08/08 12:46:58;;;;;;;3.07;1.20;;;;;;;;;;5029696;28;20037;-81
2023/08/08 12:49:23;;;;;;;4.85;1.20;;;;;;;;;;5039506;28;20277;-80
2023/08/08 12:51:50;;;;;;;2.45;1.33;;;;;;;;;;5029542;28;20030;-79
2023/08/08 12:54:15;;;;;;;2.67;1.30;;;;;;;;;;5041341;28;20061;-80
2023/08/08 12:56:40;;;;;;;3.37;1.00;;;;;;;;;;5050974;28;20030;-81
2023/08/08 12:59:05;;;;;;;3.03;1.23;;;;;;;;;;5039816;28;20292;-79
2023/08/08 13:01:31;;;;;;;2.20;1.00;;;;;;;;;;5032852;28;20296;-81
2023/08/08 13:03:56;;;;;;;3.35;1.35;;;;;;;;;;5049503;28;20061;-80
2023/08/08 13:06:21;;;;;;;3.08;1.05;;;;;;;;;;5049298;28;20076;-80
2023/08/08 13:08:46;;;;;;;2.27;1.03;;;;;;;;;;5039987;28;20038;-81
2023/08/08 13:11:11;;;;;;;2.70;1.17;;;;;;;;;;5032157;28;20280;-78
2023/08/08 13:13:37;;;;;;;2.70;1.00;;;;;;;;;;5035009;28;20776;-80
2023/08/08 13:16:03;;;;;;;3.10;1.25;;;;;;;;;;5035350;28;20041;-79
2023/08/08 13:18:28;;;;;;;2.30;1.20;;;;;;;;;;5034101;28;20030;-80
2023/08/08 13:20:53;;;;;;;5.28;1.20;;;;;;;;;;5044849;28;20029;-80
2023/08/08 13:23:19;;;;;;;5.63;1.60;;;;;;;;;;5030544;28;20130;-81
2023/08/08 13:25:44;;;;;;;3.78;1.20;;;;;;;;;;5030796;28;20041;-81
2023/08/08 13:28:09;;;;;;;2.50;1.10;;;;;;;;;;5020635;28;20039;-81
2023/08/08 13:30:35;;;;;;;3.67;1.45;;;;;;;;;;5036672;28;20692;-81
2023/08/08 13:33:00;;;;;;;3.13;1.38;;;;;;;;;;5030361;28;20044;-81
2023/08/08 13:35:26;;;;;;;4.30;1.70;;;;;;;;;;5037486;28;20041;-81
2023/08/08 13:37:52;;;;;;;3.78;1.75;;;;;;;;;;5032115;28;20022;-81
2023/08/08 13:40:17;;;;;;;3.70;1.30;;;;;;;;;;5037776;28;20060;-81
2023/08/08 13:42:47;;;;;;;3.95;1.30;;;;;;;;;;5047242;28;20030;-81
2023/08/08 13:45:12;;;;;;;3.67;1.20;;;;;;;;;;5038988;28;20036;-80
2023/08/08 13:47:38;;;;;;;3.53;1.45;;;;;;;;;;5029145;28;20077;-81
2023/08/08 13:50:03;;;;;;;2.93;1.47;;;;;;;;;;5031068;28;20038;-81
2023/08/08 13:52:28;;;;;;;3.60;1.30;;;;;;;;;;5039816;28;20269;-80
2023/08/08 13:54:55;;;;;;;3.87;1.40;;;;;;;;;;5038152;28;20034;-81
2023/08/08 13:57:20;;;;;;;5.55;1.38;;;;;;;;;;5034994;28;20283;-80
2023/08/08 13:59:45;;;;;;;5.53;1.43;;;;;;;;;;5030355;28;20038;-81
2023/08/08 14:02:10;;;;;;;5.20;1.10;;;;;;;;;;5034161;28;20268;-80
2023/08/08 14:04:35;;;;;;;2.55;1.00;;;;;;;;;;5028394;28;20651;-81
2023/08/08 14:07:01;;;;;;;3.60;1.10;;;;;;;;;;5018754;28;20026;-81
2023/08/08 14:09:26;;;;;;;3.60;1.13;;;;;;;;;;5026737;28;20277;-80
2023/08/08 14:11:51;;;;;;;3.70;1.00;;;;;;;;;;5044663;28;20307;-80
2023/08/08 14:14:16;;;;;;;2.70;1.00;;;;;;;;;;5037179;28;20022;-78
2023/08/08 14:16:42;;;;;;;3.97;1.30;;;;;;;;;;5031025;28;20268;-81
2023/08/08 14:19:08;;;;;;;3.53;1.20;;;;;;;;;;5043009;28;20303;-80
2023/08/08 14:21:33;;;;;;;2.47;1.02;;;;;;;;;;5043144;28;20485;-81
2023/08/08 14:23:58;;;;;;;3.95;1.00;;;;;;;;;;5038664;28;20037;-80
2023/08/08 14:26:24;;;;;;;2.90;1.05;;;;;;;;;;5035806;28;20082;-80
2023/08/08 14:28:49;;;;;;;2.95;1.10;;;;;;;;;;5038383;28;20125;-80
2023/08/08 14:31:14;;;;;;;2.97;1.10;;;;;;;;;;5029262;28;20038;-81
2023/08/08 14:33:39;;;;;;;3.40;1.10;;;;;;;;;;5029647;28;20037;-79
2023/08/08 14:36:05;;;;;;;3.50;1.10;;;;;;;;;;5037509;28;20280;-79